createdAt,value
2023-12-13T00:00:14.618Z,51.56
2023-12-13T00:01:14.693Z,51.55
2023-12-13T00:02:14.850Z,51.54
2023-12-13T00:03:14.783Z,51.55
2023-12-13T00:04:14.821Z,51.54
2023-12-13T00:05:14.832Z,51.54
2023-12-13T00:06:14.882Z,51.56
2023-12-13T00:07:14.958Z,51.56
2023-12-13T00:08:14.958Z,51.54
2023-12-13T00:09:15.000Z,51.56
2023-12-13T00:10:15.079Z,51.56
2023-12-13T00:11:15.112Z,51.54
2023-12-13T00:12:15.168Z,51.56
2023-12-13T00:13:15.234Z,51.54
2023-12-13T00:14:15.224Z,51.54
2023-12-13T00:15:15.277Z,51.52
2023-12-13T00:16:15.357Z,51.54
2023-12-13T00:17:15.366Z,51.53
2023-12-13T00:18:15.531Z,51.51
2023-12-13T00:19:15.626Z,51.51
2023-12-13T00:20:15.552Z,51.53
2023-12-13T00:21:15.619Z,51.51
2023-12-13T00:22:15.703Z,51.53
2023-12-13T00:23:15.733Z,51.55
2023-12-13T00:24:15.787Z,51.54
2023-12-13T00:25:15.929Z,51.54
2023-12-13T00:26:15.903Z,51.52
2023-12-13T00:27:15.969Z,51.53
2023-12-13T00:28:16.597Z,51.52
2023-12-13T00:29:16.163Z,51.53
2023-12-13T00:30:16.214Z,51.53
2023-12-13T00:31:16.234Z,51.53
2023-12-13T00:32:16.270Z,51.52
2023-12-13T00:33:16.495Z,51.52
2023-12-13T00:34:16.429Z,51.50
2023-12-13T00:35:16.473Z,51.53
2023-12-13T00:36:16.531Z,51.52
2023-12-13T00:37:16.754Z,51.53
2023-12-13T00:38:16.652Z,51.54
2023-12-13T00:39:16.708Z,51.54
2023-12-13T00:40:16.954Z,51.54
2023-12-13T00:41:16.833Z,51.53
2023-12-13T00:42:16.900Z,51.55
2023-12-13T00:43:16.987Z,51.54
2023-12-13T00:44:17.022Z,51.52
2023-12-13T00:45:17.080Z,51.51
2023-12-13T00:46:17.206Z,51.51
2023-12-13T00:47:17.282Z,51.51
2023-12-13T00:48:17.323Z,51.50
2023-12-13T00:49:17.366Z,51.50
2023-12-13T00:50:17.388Z,51.50
2023-12-13T00:51:17.460Z,51.48
2023-12-13T00:52:17.578Z,51.48
2023-12-13T00:53:17.575Z,51.48
2023-12-13T00:54:17.631Z,51.47
2023-12-13T00:55:17.774Z,51.47
2023-12-13T00:56:17.759Z,51.45
2023-12-13T00:57:17.815Z,51.44
2023-12-13T00:58:17.922Z,51.45
2023-12-13T00:59:17.924Z,51.41
2023-12-13T01:00:17.994Z,51.42
2023-12-13T01:01:18.151Z,51.42
2023-12-13T01:02:18.640Z,51.44
2023-12-13T01:03:18.194Z,51.44
2023-12-13T01:04:18.402Z,51.44
2023-12-13T01:05:18.390Z,51.43
2023-12-13T01:06:18.387Z,51.44
2023-12-13T01:07:18.471Z,51.43
2023-12-13T01:08:18.500Z,51.39
2023-12-13T01:09:18.595Z,51.41
2023-12-13T01:10:18.645Z,51.41
2023-12-13T01:11:18.698Z,51.40
2023-12-13T01:12:18.746Z,51.41
2023-12-13T01:13:18.853Z,51.40
2023-12-13T01:14:18.884Z,51.41
2023-12-13T01:15:18.930Z,51.41
2023-12-13T01:16:19.026Z,51.39
2023-12-13T01:17:19.057Z,51.39
2023-12-13T01:18:19.189Z,51.41
2023-12-13T01:19:19.263Z,51.42
2023-12-13T01:20:19.422Z,51.39
2023-12-13T01:21:19.315Z,51.38
2023-12-13T01:22:19.393Z,51.37
2023-12-13T01:23:19.439Z,51.38
2023-12-13T01:24:19.522Z,51.38
2023-12-13T01:25:19.594Z,51.37
2023-12-13T01:26:19.652Z,51.38
2023-12-13T01:27:19.700Z,51.36
2023-12-13T01:28:19.958Z,51.38
2023-12-13T01:29:19.894Z,51.36
2023-12-13T01:30:19.919Z,51.36
2023-12-13T01:31:20.037Z,51.37
2023-12-13T01:32:20.040Z,51.37
2023-12-13T01:33:20.145Z,51.36
2023-12-13T01:34:20.175Z,51.33
2023-12-13T01:35:20.216Z,51.35
2023-12-13T01:36:20.269Z,51.38
2023-12-13T01:37:20.348Z,51.36
2023-12-13T01:38:20.474Z,51.35
2023-12-13T01:39:20.519Z,51.32
2023-12-13T01:40:20.550Z,51.32
2023-12-13T01:41:20.619Z,51.35
2023-12-13T01:42:20.652Z,51.35
2023-12-13T01:43:20.728Z,51.33
2023-12-13T01:44:20.772Z,51.33
2023-12-13T01:45:20.837Z,51.32
2023-12-13T01:46:20.905Z,51.32
2023-12-13T01:47:20.945Z,51.30
2023-12-13T01:48:21.147Z,51.31
2023-12-13T01:49:21.202Z,51.30
2023-12-13T01:50:21.147Z,51.31
2023-12-13T01:51:21.199Z,51.29
2023-12-13T01:52:21.287Z,51.30
2023-12-13T01:53:21.395Z,51.28
2023-12-13T01:54:21.392Z,51.25
2023-12-13T01:55:21.479Z,51.26
2023-12-13T01:56:21.517Z,51.27
2023-12-13T01:57:21.635Z,51.25
2023-12-13T01:58:21.677Z,51.26
2023-12-13T01:59:21.709Z,51.25
2023-12-13T02:00:21.775Z,51.25
2023-12-13T02:01:21.918Z,51.24
2023-12-13T02:02:21.937Z,51.23
2023-12-13T02:03:22.015Z,51.23
2023-12-13T02:04:22.064Z,51.24
2023-12-13T02:05:22.153Z,51.23
2023-12-13T02:06:22.168Z,51.23
2023-12-13T02:07:22.246Z,51.22
2023-12-13T02:08:22.300Z,51.22
2023-12-13T02:09:22.364Z,51.20
2023-12-13T02:10:22.469Z,51.21
2023-12-13T02:11:24.534Z,51.20
2023-12-13T02:12:22.543Z,51.19
2023-12-13T02:13:22.635Z,51.21
2023-12-13T02:14:22.625Z,51.20
2023-12-13T02:15:22.686Z,51.19
2023-12-13T02:16:22.777Z,51.18
2023-12-13T02:17:22.775Z,51.19
2023-12-13T02:18:22.892Z,51.20
2023-12-13T02:19:22.980Z,51.17
2023-12-13T02:20:22.914Z,51.17
2023-12-13T02:21:22.968Z,51.13
2023-12-13T02:22:23.034Z,51.14
2023-12-13T02:23:23.054Z,51.11
2023-12-13T02:24:23.101Z,51.12
2023-12-13T02:25:23.209Z,51.11
2023-12-13T02:26:23.190Z,51.09
2023-12-13T02:27:23.239Z,51.09
2023-12-13T02:28:23.318Z,51.10
2023-12-13T02:29:23.333Z,51.09
2023-12-13T02:30:25.055Z,51.04
2023-12-13T02:31:23.490Z,51.05
2023-12-13T02:32:23.528Z,51.04
2023-12-13T02:33:23.611Z,51.04
2023-12-13T02:34:23.705Z,51.06
2023-12-13T02:35:23.630Z,51.03
2023-12-13T02:36:23.664Z,51.02
2023-12-13T02:37:23.732Z,51.00
2023-12-13T02:38:23.746Z,51.02
2023-12-13T02:39:23.884Z,51.02
2023-12-13T02:40:23.875Z,51.00
2023-12-13T02:41:23.883Z,50.99
2023-12-13T02:42:24.003Z,50.99
2023-12-13T02:43:24.037Z,50.99
2023-12-13T02:44:24.029Z,50.98
2023-12-13T02:45:24.081Z,50.99
2023-12-13T02:46:24.178Z,50.99
2023-12-13T02:47:24.185Z,50.96
2023-12-13T02:48:24.380Z,50.94
2023-12-13T02:49:24.340Z,50.92
2023-12-13T02:50:24.314Z,50.94
2023-12-13T02:51:24.365Z,50.93
2023-12-13T02:52:24.470Z,50.90
2023-12-13T02:53:24.461Z,50.91
2023-12-13T02:54:24.497Z,50.89
2023-12-13T02:55:27.241Z,50.89
2023-12-13T02:56:24.868Z,50.93
2023-12-13T02:57:24.883Z,50.87
2023-12-13T02:58:25.013Z,50.90
2023-12-13T02:59:24.996Z,50.86
2023-12-13T03:00:25.070Z,50.86
2023-12-13T03:01:25.242Z,50.85
2023-12-13T03:02:25.174Z,50.85
2023-12-13T03:03:25.281Z,50.81
2023-12-13T03:04:25.323Z,50.83
2023-12-13T03:05:25.370Z,50.84
2023-12-13T03:06:25.391Z,50.81
2023-12-13T03:07:25.527Z,50.78
2023-12-13T03:08:25.495Z,50.77
2023-12-13T03:09:25.544Z,50.77
2023-12-13T03:10:25.655Z,50.77
2023-12-13T03:11:25.682Z,50.78
2023-12-13T03:12:25.724Z,50.76
2023-12-13T03:13:25.789Z,50.77
2023-12-13T03:14:25.910Z,50.74
2023-12-13T03:15:25.956Z,50.74
2023-12-13T03:16:25.995Z,50.73
2023-12-13T03:17:25.985Z,50.71
2023-12-13T03:18:26.157Z,50.72
2023-12-13T03:19:26.193Z,50.69
2023-12-13T03:20:26.156Z,50.66
2023-12-13T03:21:26.243Z,50.67
2023-12-13T03:22:26.290Z,50.64
2023-12-13T03:23:26.337Z,50.61
2023-12-13T03:24:26.409Z,50.59
2023-12-13T03:25:26.513Z,50.61
2023-12-13T03:26:26.514Z,50.60
2023-12-13T03:27:26.573Z,50.59
2023-12-13T03:28:26.659Z,50.57
2023-12-13T03:29:26.695Z,50.58
2023-12-13T03:30:27.207Z,50.55
2023-12-13T03:31:26.855Z,50.55
2023-12-13T03:32:26.871Z,50.53
2023-12-13T03:33:27.010Z,50.57
2023-12-13T03:34:27.057Z,50.55
2023-12-13T03:35:27.059Z,50.54
2023-12-13T03:36:27.102Z,50.51
2023-12-13T03:37:27.215Z,50.49
2023-12-13T03:38:27.219Z,50.49
2023-12-13T03:39:27.291Z,50.48
2023-12-13T03:40:27.364Z,50.47
2023-12-13T03:41:27.428Z,50.47
2023-12-13T03:42:27.456Z,50.47
2023-12-13T03:43:27.538Z,50.44
2023-12-13T03:44:27.564Z,50.46
2023-12-13T03:45:27.682Z,50.43
2023-12-13T03:46:27.762Z,50.46
2023-12-13T03:47:28.065Z,50.44
2023-12-13T03:48:27.932Z,50.43
2023-12-13T03:49:28.071Z,50.42
2023-12-13T03:50:27.925Z,50.43
2023-12-13T03:51:27.980Z,50.39
2023-12-13T03:52:28.053Z,50.38
2023-12-13T03:53:28.101Z,50.38
2023-12-13T03:54:28.169Z,50.37
2023-12-13T03:55:28.245Z,50.36
2023-12-13T03:56:28.279Z,50.36
2023-12-13T03:57:28.360Z,50.37
2023-12-13T03:58:28.435Z,50.33
2023-12-13T03:59:28.451Z,50.36
2023-12-13T04:00:28.611Z,50.35
2023-12-13T04:01:28.601Z,50.31
2023-12-13T04:02:28.624Z,50.31
2023-12-13T04:03:28.725Z,50.30
2023-12-13T04:04:28.794Z,50.30
2023-12-13T04:05:28.808Z,50.28
2023-12-13T04:06:28.893Z,50.28
2023-12-13T04:07:28.944Z,50.28
2023-12-13T04:08:28.982Z,50.23
2023-12-13T04:09:29.041Z,50.25
2023-12-13T04:10:29.155Z,50.24
2023-12-13T04:11:29.152Z,50.22
2023-12-13T04:12:29.250Z,50.21
2023-12-13T04:13:29.313Z,50.23
2023-12-13T04:14:29.331Z,50.22
2023-12-13T04:15:29.395Z,50.19
2023-12-13T04:16:29.461Z,50.19
2023-12-13T04:17:30.304Z,50.18
2023-12-13T04:18:29.620Z,50.17
2023-12-13T04:19:29.644Z,50.17
2023-12-13T04:20:29.672Z,50.19
2023-12-13T04:21:29.721Z,50.16
2023-12-13T04:22:29.796Z,50.17
2023-12-13T04:23:29.837Z,50.16
2023-12-13T04:24:29.877Z,50.14
2023-12-13T04:25:29.984Z,50.16
2023-12-13T04:26:30.005Z,50.16
2023-12-13T04:27:30.171Z,50.15
2023-12-13T04:28:30.105Z,50.14
2023-12-13T04:29:30.159Z,50.11
2023-12-13T04:30:30.252Z,50.11
2023-12-13T04:31:30.360Z,50.12
2023-12-13T04:32:30.406Z,50.10
2023-12-13T04:33:30.480Z,50.09
2023-12-13T04:34:30.477Z,50.09
2023-12-13T04:35:30.521Z,50.10
2023-12-13T04:36:30.560Z,50.06
2023-12-13T04:37:30.798Z,50.08
2023-12-13T04:38:30.660Z,50.08
2023-12-13T04:39:30.776Z,50.09
2023-12-13T04:40:30.831Z,50.08
2023-12-13T04:41:30.849Z,50.09
2023-12-13T04:42:30.888Z,50.07
2023-12-13T04:43:30.960Z,50.06
2023-12-13T04:44:30.995Z,50.05
2023-12-13T04:45:31.056Z,50.05
2023-12-13T04:46:38.456Z,50.11
2023-12-13T04:47:38.774Z,50.09
2023-12-13T04:48:38.643Z,50.08
2023-12-13T04:49:38.615Z,50.06
2023-12-13T04:50:38.601Z,50.05
2023-12-13T04:51:38.638Z,50.06
2023-12-13T04:52:39.521Z,50.03
2023-12-13T04:53:38.714Z,50.04
2023-12-13T04:54:38.766Z,50.04
2023-12-13T04:55:38.862Z,50.07
2023-12-13T04:56:38.847Z,50.06
2023-12-13T04:57:39.486Z,50.03
2023-12-13T04:58:38.966Z,50.06
2023-12-13T04:59:38.971Z,50.04
2023-12-13T05:00:39.059Z,50.05
2023-12-13T05:01:39.085Z,50.06
2023-12-13T05:02:39.097Z,50.05
2023-12-13T05:03:39.208Z,50.06
2023-12-13T05:04:39.242Z,50.06
2023-12-13T05:05:39.308Z,50.05
2023-12-13T05:06:39.306Z,50.04
2023-12-13T05:07:39.480Z,50.05
2023-12-13T05:08:39.377Z,50.05
2023-12-13T05:09:39.429Z,50.06
2023-12-13T05:10:39.538Z,50.05
2023-12-13T05:11:39.521Z,50.06
2023-12-13T05:12:39.579Z,50.08
2023-12-13T05:13:39.639Z,50.06
2023-12-13T05:14:39.684Z,50.06
2023-12-13T05:15:39.700Z,50.06
2023-12-13T05:16:39.800Z,50.05
2023-12-13T05:17:39.906Z,50.06
2023-12-13T05:18:39.869Z,50.05
2023-12-13T05:19:40.080Z,50.07
2023-12-13T05:20:39.960Z,50.05
2023-12-13T05:21:39.996Z,50.04
2023-12-13T05:22:40.111Z,50.06
2023-12-13T05:23:40.087Z,50.03
2023-12-13T05:24:40.157Z,50.06
2023-12-13T05:25:40.263Z,50.06
2023-12-13T05:26:40.211Z,50.01
2023-12-13T05:27:40.253Z,50.05
2023-12-13T05:28:40.353Z,50.04
2023-12-13T05:29:40.353Z,50.03
2023-12-13T05:30:40.423Z,50.03
2023-12-13T05:31:40.479Z,50.03
2023-12-13T05:32:40.525Z,50.04
2023-12-13T05:33:40.554Z,50.04
2023-12-13T05:34:40.597Z,50.07
2023-12-13T05:35:40.667Z,50.04
2023-12-13T05:36:40.651Z,50.05
2023-12-13T05:37:40.713Z,50.05
2023-12-13T05:38:40.722Z,50.06
2023-12-13T05:39:40.760Z,50.07
2023-12-13T05:40:40.837Z,50.02
2023-12-13T05:41:41.499Z,50.06
2023-12-13T05:42:40.887Z,50.06
2023-12-13T05:43:40.978Z,50.07
2023-12-13T05:44:40.964Z,50.06
2023-12-13T05:45:41.016Z,50.06
2023-12-13T05:46:41.119Z,50.04
2023-12-13T05:47:41.166Z,50.06
2023-12-13T05:48:41.217Z,50.07
2023-12-13T05:49:41.197Z,50.04
2023-12-13T05:50:41.216Z,50.03
2023-12-13T05:51:41.260Z,50.07
2023-12-13T05:52:41.298Z,50.07
2023-12-13T05:53:41.315Z,50.07
2023-12-13T05:54:41.364Z,50.05
2023-12-13T05:55:41.426Z,50.06
2023-12-13T05:56:41.442Z,50.05
2023-12-13T05:57:41.494Z,50.06
2023-12-13T05:58:41.674Z,50.05
2023-12-13T05:59:41.649Z,50.06
2023-12-13T06:00:41.647Z,50.06
2023-12-13T06:01:42.528Z,50.11
2023-12-13T06:02:54.797Z,50.06
2023-12-13T06:03:42.793Z,50.07
2023-12-13T06:04:41.883Z,50.07
2023-12-13T06:05:42.167Z,50.06
2023-12-13T06:06:41.925Z,50.06
2023-12-13T06:07:41.934Z,50.03
2023-12-13T06:08:41.987Z,50.06
2023-12-13T06:09:42.035Z,50.03
2023-12-13T06:10:42.548Z,50.06
2023-12-13T06:11:42.112Z,50.06
2023-12-13T06:12:42.165Z,50.05
2023-12-13T06:13:42.410Z,50.05
2023-12-13T06:14:42.226Z,50.06
2023-12-13T06:15:42.279Z,50.05
2023-12-13T06:16:42.480Z,50.06
2023-12-13T06:17:42.454Z,50.06
2023-12-13T06:18:42.440Z,50.05
2023-12-13T06:19:42.455Z,50.05
2023-12-13T06:20:42.502Z,50.04
2023-12-13T06:21:42.537Z,50.14
2023-12-13T06:22:42.607Z,50.15
2023-12-13T06:23:42.665Z,50.13
2023-12-13T06:24:42.648Z,50.28
2023-12-13T06:25:42.760Z,50.92
2023-12-13T06:26:42.733Z,50.80
2023-12-13T06:27:42.778Z,51.23
2023-12-13T06:28:42.910Z,51.82
2023-12-13T06:29:43.010Z,52.17
2023-12-13T06:30:43.080Z,52.44
2023-12-13T06:31:48.132Z,52.91
2023-12-13T06:32:43.274Z,53.27
2023-12-13T06:33:43.358Z,53.47
2023-12-13T06:34:43.989Z,53.66
2023-12-13T06:35:43.944Z,53.89
2023-12-13T06:36:43.323Z,54.24
2023-12-13T06:37:43.465Z,54.33
2023-12-13T06:38:43.475Z,54.52
2023-12-13T06:39:44.470Z,54.88
2023-12-13T06:40:44.520Z,55.01
2023-12-13T06:41:43.548Z,55.03
2023-12-13T06:42:43.542Z,55.37
2023-12-13T06:43:43.574Z,55.53
2023-12-13T06:44:43.587Z,55.62
2023-12-13T06:45:43.618Z,55.84
2023-12-13T06:46:43.760Z,56.32
2023-12-13T06:47:43.678Z,56.29
2023-12-13T06:48:43.795Z,56.38
2023-12-13T06:49:43.763Z,56.54
2023-12-13T06:50:43.827Z,56.86
2023-12-13T06:51:44.554Z,56.91
2023-12-13T06:52:43.845Z,56.94
2023-12-13T06:53:43.882Z,57.19
2023-12-13T06:54:43.866Z,57.36
2023-12-13T06:55:44.086Z,57.49
2023-12-13T06:56:44.536Z,57.68
2023-12-13T06:57:43.934Z,57.73
2023-12-13T06:58:44.025Z,57.99
2023-12-13T06:59:43.991Z,58.07
2023-12-13T07:00:44.566Z,58.21
2023-12-13T07:01:44.018Z,58.31
2023-12-13T07:02:44.097Z,58.42
2023-12-13T07:03:44.071Z,58.40
2023-12-13T07:04:44.244Z,58.66
2023-12-13T07:05:44.426Z,58.63
2023-12-13T07:06:45.127Z,59.00
2023-12-13T07:07:44.199Z,59.02
2023-12-13T07:08:44.188Z,59.33
2023-12-13T07:09:46.086Z,59.37
2023-12-13T07:10:44.253Z,59.56
2023-12-13T07:11:44.240Z,59.50
2023-12-13T07:12:44.310Z,59.62
2023-12-13T07:13:44.448Z,59.66
2023-12-13T07:14:46.035Z,59.88
2023-12-13T07:15:44.321Z,60.08
2023-12-13T07:16:44.414Z,60.11
2023-12-13T07:17:44.409Z,60.37
2023-12-13T07:18:44.391Z,60.26
2023-12-13T07:19:45.446Z,60.38
2023-12-13T07:20:44.445Z,61.10
2023-12-13T07:21:44.426Z,60.37
2023-12-13T07:22:44.504Z,60.34
2023-12-13T07:23:44.560Z,60.11
2023-12-13T07:24:44.507Z,60.05
2023-12-13T07:25:44.586Z,60.00
2023-12-13T07:26:46.554Z,60.03
2023-12-13T07:27:44.568Z,60.10
2023-12-13T07:28:44.675Z,60.06
2023-12-13T07:29:44.724Z,60.07
2023-12-13T07:30:52.466Z,60.07
2023-12-13T07:31:45.860Z,60.12
2023-12-13T07:32:44.875Z,60.10
2023-12-13T07:33:44.890Z,60.16
2023-12-13T07:34:44.891Z,60.26
2023-12-13T07:35:44.886Z,60.22
2023-12-13T07:36:44.932Z,60.25
2023-12-13T07:37:44.970Z,60.26
2023-12-13T07:38:44.962Z,60.29
2023-12-13T07:39:44.991Z,60.28
2023-12-13T07:40:45.102Z,60.30
2023-12-13T07:41:45.067Z,60.25
2023-12-13T07:42:46.970Z,60.26
2023-12-13T07:43:45.109Z,60.23
2023-12-13T07:44:45.123Z,60.30
2023-12-13T07:45:45.158Z,60.29
2023-12-13T07:46:46.070Z,60.30
2023-12-13T07:47:53.521Z,60.24
2023-12-13T07:48:46.400Z,60.24
2023-12-13T07:49:46.098Z,60.24
2023-12-13T07:50:45.455Z,60.25
2023-12-13T07:51:45.333Z,60.23
2023-12-13T07:52:45.381Z,60.26
2023-12-13T07:53:46.684Z,60.29
2023-12-13T07:54:45.432Z,60.23
2023-12-13T07:55:45.456Z,60.22
2023-12-13T07:56:45.480Z,60.22
2023-12-13T07:57:45.499Z,60.24
2023-12-13T07:58:45.583Z,60.18
2023-12-13T07:59:45.581Z,60.21
2023-12-13T08:00:45.636Z,60.24
2023-12-13T08:01:45.696Z,60.19
2023-12-13T08:02:47.026Z,60.19
2023-12-13T08:03:45.744Z,60.17
2023-12-13T08:04:45.849Z,60.18
2023-12-13T08:05:45.971Z,60.14
2023-12-13T08:06:45.988Z,60.11
2023-12-13T08:07:46.154Z,60.07
2023-12-13T08:08:46.148Z,60.11
2023-12-13T08:09:46.498Z,60.06
2023-12-13T08:10:46.603Z,60.08
2023-12-13T08:11:46.390Z,60.02
2023-12-13T08:12:46.503Z,60.01
2023-12-13T08:13:46.742Z,59.97
2023-12-13T08:14:46.650Z,59.92
2023-12-13T08:15:46.744Z,59.95
2023-12-13T08:16:46.840Z,59.91
2023-12-13T08:17:47.052Z,59.91
2023-12-13T08:18:47.117Z,59.87
2023-12-13T08:19:47.572Z,59.86
2023-12-13T08:20:48.970Z,59.81
2023-12-13T08:21:47.282Z,59.81
2023-12-13T08:22:47.563Z,59.80
2023-12-13T08:23:47.520Z,59.75
2023-12-13T08:24:47.552Z,59.71
2023-12-13T08:25:47.668Z,57.38
2023-12-13T08:26:47.691Z,52.76
2023-12-13T08:27:47.773Z,50.36
2023-12-13T08:28:48.335Z,49.60
2023-12-13T08:29:47.988Z,49.13
2023-12-13T08:30:48.156Z,48.78
2023-12-13T08:31:48.234Z,49.65
2023-12-13T08:32:49.101Z,51.13
2023-12-13T08:33:48.486Z,52.90
2023-12-13T08:34:48.578Z,53.55
2023-12-13T08:35:48.638Z,53.10
2023-12-13T08:36:48.715Z,52.83
2023-12-13T08:37:48.806Z,52.79
2023-12-13T08:38:49.847Z,52.50
2023-12-13T08:39:49.592Z,52.30
2023-12-13T08:40:49.026Z,52.22
2023-12-13T08:41:49.024Z,51.67
2023-12-13T08:42:49.085Z,51.66
2023-12-13T08:43:50.071Z,51.48
2023-12-13T08:44:49.178Z,51.54
2023-12-13T08:45:49.236Z,51.63
2023-12-13T08:46:49.316Z,51.82
2023-12-13T08:47:49.328Z,51.92
2023-12-13T08:48:49.422Z,52.03
2023-12-13T08:49:49.454Z,52.07
2023-12-13T08:50:50.024Z,52.28
2023-12-13T08:51:49.502Z,52.38
2023-12-13T08:52:49.651Z,52.56
2023-12-13T08:53:49.669Z,52.70
2023-12-13T08:54:49.743Z,52.83
2023-12-13T08:55:49.881Z,52.98
2023-12-13T08:56:49.862Z,53.18
2023-12-13T08:57:49.924Z,53.40
2023-12-13T08:58:50.000Z,53.49
2023-12-13T08:59:56.754Z,53.63
2023-12-13T09:00:51.225Z,53.81
2023-12-13T09:01:50.144Z,51.26
2023-12-13T09:02:51.078Z,48.21
2023-12-13T09:03:50.298Z,46.78
2023-12-13T09:04:50.314Z,45.79
2023-12-13T09:05:50.396Z,47.83
2023-12-13T09:06:50.347Z,49.60
2023-12-13T09:07:50.442Z,50.43
2023-12-13T09:08:52.084Z,50.31
2023-12-13T09:09:51.079Z,50.09
2023-12-13T09:10:50.515Z,50.12
2023-12-13T09:11:50.516Z,50.44
2023-12-13T09:12:50.564Z,50.42
2023-12-13T09:13:50.715Z,50.57
2023-12-13T09:14:50.695Z,50.95
2023-12-13T09:15:50.788Z,51.56
2023-12-13T09:16:50.824Z,50.91
2023-12-13T09:17:50.912Z,48.65
2023-12-13T09:18:51.004Z,48.02
2023-12-13T09:19:51.204Z,47.13
2023-12-13T09:20:51.170Z,46.45
2023-12-13T09:21:51.196Z,47.03
2023-12-13T09:22:51.356Z,47.71
2023-12-13T09:23:51.391Z,48.26
2023-12-13T09:24:51.557Z,48.77
2023-12-13T09:25:51.598Z,49.45
2023-12-13T09:26:51.651Z,49.60
2023-12-13T09:27:51.760Z,49.89
2023-12-13T09:28:51.942Z,50.19
2023-12-13T09:29:51.945Z,50.43
2023-12-13T09:30:52.122Z,50.60
2023-12-13T09:31:52.087Z,50.80
2023-12-13T09:32:53.190Z,50.97
2023-12-13T09:33:52.324Z,51.11
2023-12-13T09:34:52.257Z,51.32
2023-12-13T09:35:52.328Z,51.41
2023-12-13T09:36:52.429Z,51.64
2023-12-13T09:37:52.562Z,51.73
2023-12-13T09:38:52.604Z,51.93
2023-12-13T09:39:59.576Z,51.96
2023-12-13T09:40:53.759Z,52.14
2023-12-13T09:41:52.740Z,52.29
2023-12-13T09:42:52.787Z,52.56
2023-12-13T09:43:52.832Z,52.64
2023-12-13T09:44:52.832Z,52.79
2023-12-13T09:45:52.867Z,52.94
2023-12-13T09:46:52.939Z,53.07
2023-12-13T09:47:53.017Z,53.19
2023-12-13T09:48:52.976Z,53.41
2023-12-13T09:49:53.041Z,53.48
2023-12-13T09:50:53.075Z,53.73
2023-12-13T09:51:52.999Z,53.75
2023-12-13T09:52:53.071Z,53.85
2023-12-13T09:53:53.041Z,54.03
2023-12-13T09:54:53.064Z,54.20
2023-12-13T09:55:53.172Z,54.23
2023-12-13T09:56:53.175Z,54.46
2023-12-13T09:57:53.136Z,54.62
2023-12-13T09:58:53.233Z,54.69
2023-12-13T09:59:53.190Z,54.93
2023-12-13T10:00:53.206Z,54.97
2023-12-13T10:01:53.327Z,55.21
2023-12-13T10:02:53.394Z,55.32
2023-12-13T10:03:53.470Z,55.54
2023-12-13T10:04:54.600Z,55.53
2023-12-13T10:05:53.744Z,55.75
2023-12-13T10:06:54.610Z,55.82
2023-12-13T10:07:54.826Z,55.89
2023-12-13T10:08:53.779Z,55.97
2023-12-13T10:09:54.599Z,56.08
2023-12-13T10:10:53.908Z,56.37
2023-12-13T10:11:53.840Z,56.47
2023-12-13T10:12:53.853Z,56.63
2023-12-13T10:13:53.896Z,56.84
2023-12-13T10:14:53.887Z,56.87
2023-12-13T10:15:53.909Z,57.03
2023-12-13T10:17:00.833Z,57.22
2023-12-13T10:17:55.568Z,57.28
2023-12-13T10:18:53.980Z,57.33
2023-12-13T10:19:54.085Z,57.55
2023-12-13T10:20:54.001Z,57.45
2023-12-13T10:21:54.022Z,57.58
2023-12-13T10:22:54.132Z,57.76
2023-12-13T10:23:54.646Z,57.62
2023-12-13T10:24:54.112Z,57.58
2023-12-13T10:25:54.157Z,56.79
2023-12-13T10:26:54.204Z,55.00
2023-12-13T10:27:54.276Z,55.78
2023-12-13T10:28:54.362Z,55.60
2023-12-13T10:29:54.383Z,54.62
2023-12-13T10:30:54.486Z,54.64
2023-12-13T10:31:54.484Z,54.69
2023-12-13T10:32:54.677Z,54.88
2023-12-13T10:33:54.595Z,54.94
2023-12-13T10:34:54.582Z,55.03
2023-12-13T10:35:54.581Z,55.13
2023-12-13T10:36:54.651Z,55.21
2023-12-13T10:37:54.754Z,55.32
2023-12-13T10:38:54.802Z,55.47
2023-12-13T10:39:55.130Z,55.53
2023-12-13T10:40:55.022Z,55.66
2023-12-13T10:41:55.075Z,55.81
2023-12-13T10:42:55.156Z,55.94
2023-12-13T10:43:55.270Z,56.06
2023-12-13T10:44:55.297Z,56.10
2023-12-13T10:45:55.409Z,56.25
2023-12-13T10:46:55.472Z,56.30
2023-12-13T10:47:55.562Z,56.53
2023-12-13T10:48:55.623Z,56.64
2023-12-13T10:49:55.833Z,56.77
2023-12-13T10:50:55.746Z,56.94
2023-12-13T10:51:55.835Z,56.93
2023-12-13T10:52:55.933Z,57.11
2023-12-13T10:53:55.939Z,57.18
2023-12-13T10:54:56.558Z,57.39
2023-12-13T10:55:56.649Z,57.53
2023-12-13T10:56:56.121Z,57.72
2023-12-13T10:57:56.178Z,57.79
2023-12-13T10:58:56.283Z,57.93
2023-12-13T10:59:56.294Z,58.25
2023-12-13T11:00:56.404Z,58.10
2023-12-13T11:01:56.490Z,58.16
2023-12-13T11:02:56.496Z,58.02
2023-12-13T11:03:56.570Z,58.04
2023-12-13T11:04:56.673Z,58.02
2023-12-13T11:05:56.708Z,58.13
2023-12-13T11:06:56.729Z,58.13
2023-12-13T11:07:56.812Z,58.13
2023-12-13T11:08:56.838Z,58.21
2023-12-13T11:09:56.932Z,58.14
2023-12-13T11:10:57.006Z,58.21
2023-12-13T11:11:57.045Z,58.27
2023-12-13T11:12:57.641Z,58.22
2023-12-13T11:13:57.202Z,58.34
2023-12-13T11:14:57.255Z,58.37
2023-12-13T11:15:57.335Z,58.40
2023-12-13T11:16:57.457Z,58.43
2023-12-13T11:17:57.525Z,58.49
2023-12-13T11:18:57.785Z,58.54
2023-12-13T11:19:58.579Z,58.58
2023-12-13T11:20:57.779Z,58.64
2023-12-13T11:21:57.893Z,58.71
2023-12-13T11:22:58.045Z,58.66
2023-12-13T11:23:57.990Z,58.64
2023-12-13T11:24:58.058Z,58.68
2023-12-13T11:25:58.237Z,58.72
2023-12-13T11:26:58.189Z,58.70
2023-12-13T11:27:59.134Z,58.68
2023-12-13T11:28:58.338Z,58.74
2023-12-13T11:29:58.325Z,58.77
2023-12-13T11:30:58.473Z,58.72
2023-12-13T11:31:58.457Z,58.75
2023-12-13T11:32:59.583Z,58.75
2023-12-13T11:33:58.480Z,58.74
2023-12-13T11:34:58.560Z,58.75
2023-12-13T11:35:58.490Z,58.74
2023-12-13T11:36:59.062Z,58.75
2023-12-13T11:37:58.566Z,58.76
2023-12-13T11:38:58.555Z,58.75
2023-12-13T11:39:58.582Z,58.71
2023-12-13T11:40:58.668Z,58.77
2023-12-13T11:41:58.649Z,58.72
2023-12-13T11:42:58.671Z,58.73
2023-12-13T11:43:58.769Z,58.72
2023-12-13T11:44:58.772Z,58.70
2023-12-13T11:45:59.564Z,58.65
2023-12-13T11:46:58.916Z,58.69
2023-12-13T11:47:58.843Z,58.70
2023-12-13T11:48:58.831Z,58.68
2023-12-13T11:49:58.852Z,58.65
2023-12-13T11:50:58.880Z,58.65
2023-12-13T11:51:58.920Z,58.63
2023-12-13T11:52:58.972Z,58.60
2023-12-13T11:53:59.648Z,58.60
2023-12-13T11:54:58.978Z,58.63
2023-12-13T11:55:59.057Z,58.59
2023-12-13T11:56:59.034Z,58.60
2023-12-13T11:57:59.679Z,58.57
2023-12-13T11:58:59.221Z,58.58
2023-12-13T11:59:59.093Z,58.59
2023-12-13T12:00:59.197Z,58.57
2023-12-13T12:01:59.172Z,58.55
2023-12-13T12:02:59.173Z,58.57
2023-12-13T12:03:59.307Z,58.54
2023-12-13T12:04:59.340Z,58.55
2023-12-13T12:05:59.380Z,58.58
2023-12-13T12:06:59.364Z,58.53
2023-12-13T12:07:59.416Z,58.52
2023-12-13T12:08:59.485Z,58.55
2023-12-13T12:09:59.530Z,58.53
2023-12-13T12:10:59.693Z,58.50
2023-12-13T12:11:59.656Z,58.51
2023-12-13T12:12:59.715Z,58.51
2023-12-13T12:13:59.901Z,58.53
2023-12-13T12:14:59.904Z,58.54
2023-12-13T12:15:59.909Z,58.48
2023-12-13T12:17:00.079Z,58.47
2023-12-13T12:18:00.200Z,58.45
2023-12-13T12:19:00.244Z,58.45
2023-12-13T12:20:00.273Z,58.48
2023-12-13T12:21:00.348Z,58.45
2023-12-13T12:22:00.353Z,58.43
2023-12-13T12:23:00.410Z,58.41
2023-12-13T12:24:00.508Z,58.40
2023-12-13T12:25:00.579Z,58.41
2023-12-13T12:26:00.711Z,58.41
2023-12-13T12:27:00.729Z,58.39
2023-12-13T12:28:00.820Z,58.36
2023-12-13T12:29:01.708Z,58.34
2023-12-13T12:30:00.966Z,58.35
2023-12-13T12:31:01.204Z,58.35
2023-12-13T12:32:01.181Z,58.32
2023-12-13T12:33:01.336Z,58.33
2023-12-13T12:34:01.490Z,58.32
2023-12-13T12:35:02.299Z,58.35
2023-12-13T12:36:01.464Z,58.30
2023-12-13T12:37:01.570Z,58.30
2023-12-13T12:38:01.689Z,58.30
2023-12-13T12:39:01.728Z,58.30
2023-12-13T12:40:01.848Z,58.27
2023-12-13T12:41:01.935Z,58.24
2023-12-13T12:42:01.993Z,58.27
2023-12-13T12:43:02.072Z,58.23
2023-12-13T12:44:02.207Z,58.23
2023-12-13T12:45:02.483Z,58.23
2023-12-13T12:46:02.366Z,58.19
2023-12-13T12:47:02.554Z,58.18
2023-12-13T12:48:02.614Z,58.20
2023-12-13T12:49:02.712Z,58.18
2023-12-13T12:50:02.845Z,58.15
2023-12-13T12:51:02.777Z,58.13
2023-12-13T12:52:02.890Z,58.13
2023-12-13T12:53:03.038Z,58.12